Weather at Double Eagle II Airport

Public forecast

Using degrees Fahrenheit for public forecast. Weather courtesy of forecast.io.

Current aviation weather report (METAR) for Double Eagle II Airport

Retrieved 2020/11/28 12:48 UTC (16 minutes ago):

KAEG 281248Z 31006KT 10SM BKN070 M02/M03 A3025

Aviation forecast (TAF) for Double Eagle II Airport

Retrieved 2020/11/28 12:42 UTC (22 minutes ago):

TAF KAEG 281140Z 2812/2912 31005KT P6SM BKN035 FM281700 30011KT P6SM SKC FM290200 32006KT P6SM SKC